sensor_id;sensor_type;location;lat;lon;timestamp;noise_LAeq;noise_LA_min;noise_LA_max;noise_LA01;noise_LA95
77729;Laerm;68312;53.502;10.030;2023-04-03T00:01:02;45.82;42.18;51.74;;
77729;Laerm;68312;53.502;10.030;2023-04-03T00:03:27;45.16;41.58;51.88;;
77729;Laerm;68312;53.502;10.030;2023-04-03T00:05:53;44.64;40.54;52.60;;
77729;Laerm;68312;53.502;10.030;2023-04-03T00:08:19;43.65;39.96;50.17;;
77729;Laerm;68312;53.502;10.030;2023-04-03T00:10:45;44.55;39.70;53.14;;
77729;Laerm;68312;53.502;10.030;2023-04-03T00:13:11;45.41;40.93;53.29;;
77729;Laerm;68312;53.502;10.030;2023-04-03T00:15:39;43.88;39.77;48.47;;
77729;Laerm;68312;53.502;10.030;2023-04-03T00:18:05;43.56;40.41;47.64;;
77729;Laerm;68312;53.502;10.030;2023-04-03T00:20:32;43.37;39.70;48.25;;
77729;Laerm;68312;53.502;10.030;2023-04-03T00:22:59;44.73;41.35;50.51;;
77729;Laerm;68312;53.502;10.030;2023-04-03T00:25:25;44.89;39.18;53.20;;
77729;Laerm;68312;53.502;10.030;2023-04-03T00:27:51;43.79;39.08;54.23;;
77729;Laerm;68312;53.502;10.030;2023-04-03T00:30:20;44.67;41.22;48.35;;
77729;Laerm;68312;53.502;10.030;2023-04-03T00:32:49;44.39;39.63;49.11;;
77729;Laerm;68312;53.502;10.030;2023-04-03T00:35:15;43.42;39.42;49.79;;
77729;Laerm;68312;53.502;10.030;2023-04-03T00:37:42;44.64;40.53;52.48;;
77729;Laerm;68312;53.502;10.030;2023-04-03T00:40:10;44.49;40.41;55.29;;
77729;Laerm;68312;53.502;10.030;2023-04-03T00:42:40;44.91;40.56;51.52;;
77729;Laerm;68312;53.502;10.030;2023-04-03T00:47:32;43.78;39.56;54.14;;
77729;Laerm;68312;53.502;10.030;2023-04-03T00:49:58;43.93;40.40;49.31;;
77729;Laerm;68312;53.502;10.030;2023-04-03T00:52:29;42.57;39.12;49.29;;
77729;Laerm;68312;53.502;10.030;2023-04-03T00:55:04;43.77;38.33;50.99;;
77729;Laerm;68312;53.502;10.030;2023-04-03T00:57:32;43.26;38.92;48.90;;
77729;Laerm;68312;53.502;10.030;2023-04-03T01:00:08;44.05;39.99;49.29;;
77729;Laerm;68312;53.502;10.030;2023-04-03T01:02:35;44.46;39.22;51.81;;
77729;Laerm;68312;53.502;10.030;2023-04-03T01:05:01;44.99;41.28;50.87;;
77729;Laerm;68312;53.502;10.030;2023-04-03T01:07:30;44.86;41.03;51.99;;
77729;Laerm;68312;53.502;10.030;2023-04-03T01:10:02;43.37;38.83;51.21;;
77729;Laerm;68312;53.502;10.030;2023-04-03T01:12:37;45.21;40.76;50.99;;
77729;Laerm;68312;53.502;10.030;2023-04-03T01:15:21;45.09;40.71;51.02;;
77729;Laerm;68312;53.502;10.030;2023-04-03T01:17:58;46.36;42.13;51.84;;
77729;Laerm;68312;53.502;10.030;2023-04-03T01:25:54;45.09;40.70;49.38;;
77729;Laerm;68312;53.502;10.030;2023-04-03T01:28:33;45.17;41.11;49.40;;
77729;Laerm;68312;53.502;10.030;2023-04-03T01:31:18;44.42;39.39;51.41;;
77729;Laerm;68312;53.502;10.030;2023-04-03T01:33:46;43.96;39.66;48.14;;
77729;Laerm;68312;53.502;10.030;2023-04-03T01:36:27;45.86;41.78;49.32;;
77729;Laerm;68312;53.502;10.030;2023-04-03T01:38:55;45.32;40.96;50.69;;
77729;Laerm;68312;53.502;10.030;2023-04-03T01:41:21;44.62;39.78;48.28;;
77729;Laerm;68312;53.502;10.030;2023-04-03T01:43:49;44.32;40.15;51.01;;
77729;Laerm;68312;53.502;10.030;2023-04-03T01:46:16;44.61;40.20;49.95;;
77729;Laerm;68312;53.502;10.030;2023-04-03T01:48:42;46.74;43.18;53.63;;
77729;Laerm;68312;53.502;10.030;2023-04-03T01:51:08;45.91;41.33;52.54;;
77729;Laerm;68312;53.502;10.030;2023-04-03T01:53:34;45.05;40.89;51.17;;
77729;Laerm;68312;53.502;10.030;2023-04-03T01:55:59;45.28;41.07;49.56;;
77729;Laerm;68312;53.502;10.030;2023-04-03T01:58:25;45.78;42.14;49.88;;
77729;Laerm;68312;53.502;10.030;2023-04-03T02:00:51;45.56;41.78;49.82;;
77729;Laerm;68312;53.502;10.030;2023-04-03T02:03:17;45.47;41.21;50.32;;
77729;Laerm;68312;53.502;10.030;2023-04-03T02:05:43;45.47;42.06;50.49;;
77729;Laerm;68312;53.502;10.030;2023-04-03T02:08:09;45.96;41.80;51.10;;
77729;Laerm;68312;53.502;10.030;2023-04-03T02:10:35;45.95;42.36;51.11;;
77729;Laerm;68312;53.502;10.030;2023-04-03T02:13:00;45.69;42.05;54.90;;
77729;Laerm;68312;53.502;10.030;2023-04-03T02:15:26;46.48;42.92;51.55;;
77729;Laerm;68312;53.502;10.030;2023-04-03T02:17:52;45.29;42.24;49.43;;
77729;Laerm;68312;53.502;10.030;2023-04-03T02:20:18;46.54;42.41;51.84;;
77729;Laerm;68312;53.502;10.030;2023-04-03T02:22:43;46.20;41.91;52.29;;
77729;Laerm;68312;53.502;10.030;2023-04-03T02:25:09;47.13;43.76;54.92;;
77729;Laerm;68312;53.502;10.030;2023-04-03T02:27:36;45.70;41.77;53.39;;
77729;Laerm;68312;53.502;10.030;2023-04-03T02:30:03;47.28;42.72;57.67;;
77729;Laerm;68312;53.502;10.030;2023-04-03T02:32:29;45.75;42.05;51.06;;
77729;Laerm;68312;53.502;10.030;2023-04-03T02:34:54;45.79;42.11;50.05;;
77729;Laerm;68312;53.502;10.030;2023-04-03T02:37:20;46.78;43.38;51.34;;
77729;Laerm;68312;53.502;10.030;2023-04-03T02:39:46;46.44;43.05;50.75;;
77729;Laerm;68312;53.502;10.030;2023-04-03T02:42:12;47.30;43.86;54.72;;
77729;Laerm;68312;53.502;10.030;2023-04-03T02:44:38;46.62;42.05;51.55;;
77729;Laerm;68312;53.502;10.030;2023-04-03T02:47:04;47.02;43.51;52.12;;
77729;Laerm;68312;53.502;10.030;2023-04-03T02:49:31;47.25;44.01;52.56;;
77729;Laerm;68312;53.502;10.030;2023-04-03T02:51:57;46.96;43.74;51.65;;
77729;Laerm;68312;53.502;10.030;2023-04-03T02:54:23;47.50;44.24;51.21;;
77729;Laerm;68312;53.502;10.030;2023-04-03T02:56:50;47.71;44.31;53.51;;
77729;Laerm;68312;53.502;10.030;2023-04-03T02:59:16;47.53;43.67;51.95;;
77729;Laerm;68312;53.502;10.030;2023-04-03T03:01:41;46.95;42.88;54.87;;
77729;Laerm;68312;53.502;10.030;2023-04-03T03:04:07;47.28;43.94;53.90;;
77729;Laerm;68312;53.502;10.030;2023-04-03T03:06:32;48.10;44.37;51.52;;
77729;Laerm;68312;53.502;10.030;2023-04-03T03:08:58;48.38;45.02;52.96;;
77729;Laerm;68312;53.502;10.030;2023-04-03T03:11:23;47.94;43.92;50.93;;
77729;Laerm;68312;53.502;10.030;2023-04-03T03:13:50;47.70;44.49;51.06;;
77729;Laerm;68312;53.502;10.030;2023-04-03T03:16:15;48.72;45.30;56.90;;
77729;Laerm;68312;53.502;10.030;2023-04-03T03:18:41;48.99;45.00;59.57;;
77729;Laerm;68312;53.502;10.030;2023-04-03T03:21:06;48.97;45.85;52.37;;
77729;Laerm;68312;53.502;10.030;2023-04-03T03:23:33;49.53;46.60;53.02;;
77729;Laerm;68312;53.502;10.030;2023-04-03T03:26:04;49.36;46.36;53.59;;
77729;Laerm;68312;53.502;10.030;2023-04-03T03:28:31;49.80;46.32;53.21;;
77729;Laerm;68312;53.502;10.030;2023-04-03T03:30:58;52.29;45.87;68.55;;
77729;Laerm;68312;53.502;10.030;2023-04-03T03:33:24;49.99;46.64;53.14;;
77729;Laerm;68312;53.502;10.030;2023-04-03T03:35:52;51.24;46.40;65.47;;
77729;Laerm;68312;53.502;10.030;2023-04-03T03:38:18;50.12;46.83;59.14;;
77729;Laerm;68312;53.502;10.030;2023-04-03T03:40:44;49.97;46.64;53.15;;
77729;Laerm;68312;53.502;10.030;2023-04-03T03:43:09;50.71;47.33;57.40;;
77729;Laerm;68312;53.502;10.030;2023-04-03T03:45:35;50.61;47.48;60.25;;
77729;Laerm;68312;53.502;10.030;2023-04-03T03:48:02;51.39;46.77;69.43;;
77729;Laerm;68312;53.502;10.030;2023-04-03T03:50:27;51.55;46.67;64.52;;
77729;Laerm;68312;53.502;10.030;2023-04-03T03:52:53;50.80;47.26;56.59;;
77729;Laerm;68312;53.502;10.030;2023-04-03T03:55:18;50.05;45.85;54.30;;
77729;Laerm;68312;53.502;10.030;2023-04-03T03:57:44;50.31;47.18;55.56;;
77729;Laerm;68312;53.502;10.030;2023-04-03T04:00:10;50.75;47.16;60.57;;
77729;Laerm;68312;53.502;10.030;2023-04-03T04:02:36;51.19;47.50;61.11;;
77729;Laerm;68312;53.502;10.030;2023-04-03T04:05:01;50.24;47.00;53.93;;
77729;Laerm;68312;53.502;10.030;2023-04-03T04:07:27;50.60;47.47;56.40;;
77729;Laerm;68312;53.502;10.030;2023-04-03T04:09:54;50.87;47.82;58.15;;
77729;Laerm;68312;53.502;10.030;2023-04-03T04:12:21;51.51;47.82;59.40;;
77729;Laerm;68312;53.502;10.030;2023-04-03T04:14:47;51.52;48.71;58.92;;
77729;Laerm;68312;53.502;10.030;2023-04-03T04:17:14;52.72;47.41;66.84;;
77729;Laerm;68312;53.502;10.030;2023-04-03T04:19:40;51.24;47.60;58.15;;
77729;Laerm;68312;53.502;10.030;2023-04-03T04:22:05;51.69;48.41;59.15;;
77729;Laerm;68312;53.502;10.030;2023-04-03T04:24:31;51.24;47.42;59.48;;
77729;Laerm;68312;53.502;10.030;2023-04-03T04:26:57;51.27;47.35;57.57;;
77729;Laerm;68312;53.502;10.030;2023-04-03T04:29:22;51.33;48.53;59.56;;
77729;Laerm;68312;53.502;10.030;2023-04-03T04:31:48;53.06;48.13;68.40;;
77729;Laerm;68312;53.502;10.030;2023-04-03T04:34:14;54.02;48.03;69.35;;
77729;Laerm;68312;53.502;10.030;2023-04-03T04:36:40;50.70;47.74;54.16;;
77729;Laerm;68312;53.502;10.030;2023-04-03T04:39:06;54.59;47.54;70.29;;
77729;Laerm;68312;53.502;10.030;2023-04-03T04:41:32;55.30;47.63;70.17;;
77729;Laerm;68312;53.502;10.030;2023-04-03T04:43:58;50.89;47.59;58.57;;
77729;Laerm;68312;53.502;10.030;2023-04-03T04:46:24;49.61;46.42;54.60;;
77729;Laerm;68312;53.502;10.030;2023-04-03T04:48:49;51.05;46.93;62.77;;
77729;Laerm;68312;53.502;10.030;2023-04-03T04:51:15;56.09;47.11;74.96;;
77729;Laerm;68312;53.502;10.030;2023-04-03T04:53:41;54.97;47.26;72.48;;
77729;Laerm;68312;53.502;10.030;2023-04-03T04:56:07;49.80;46.79;55.79;;
77729;Laerm;68312;53.502;10.030;2023-04-03T04:58:33;50.98;47.45;58.02;;
77729;Laerm;68312;53.502;10.030;2023-04-03T05:01:08;50.66;47.80;57.16;;
77729;Laerm;68312;53.502;10.030;2023-04-03T05:03:34;50.87;47.57;59.88;;
77729;Laerm;68312;53.502;10.030;2023-04-03T05:06:00;51.31;47.36;59.17;;
77729;Laerm;68312;53.502;10.030;2023-04-03T05:08:26;60.74;48.60;75.54;;
77729;Laerm;68312;53.502;10.030;2023-04-03T05:10:52;59.37;48.51;77.65;;
77729;Laerm;68312;53.502;10.030;2023-04-03T05:13:18;51.46;48.05;56.03;;
77729;Laerm;68312;53.502;10.030;2023-04-03T05:15:44;51.76;48.19;61.45;;
77729;Laerm;68312;53.502;10.030;2023-04-03T05:18:10;51.33;47.73;62.58;;
77729;Laerm;68312;53.502;10.030;2023-04-03T05:20:35;51.98;47.54;64.78;;
77729;Laerm;68312;53.502;10.030;2023-04-03T05:23:03;51.88;47.17;63.32;;
77729;Laerm;68312;53.502;10.030;2023-04-03T05:25:28;50.64;47.58;59.02;;
77729;Laerm;68312;53.502;10.030;2023-04-03T05:27:54;50.91;47.13;63.38;;
77729;Laerm;68312;53.502;10.030;2023-04-03T05:30:20;50.68;47.28;62.59;;
77729;Laerm;68312;53.502;10.030;2023-04-03T05:32:45;50.96;47.52;61.52;;
77729;Laerm;68312;53.502;10.030;2023-04-03T05:35:11;50.60;47.16;64.34;;
77729;Laerm;68312;53.502;10.030;2023-04-03T05:37:37;50.16;46.37;58.75;;
77729;Laerm;68312;53.502;10.030;2023-04-03T05:40:05;50.60;47.36;61.29;;
77729;Laerm;68312;53.502;10.030;2023-04-03T05:42:31;49.97;47.15;54.19;;
77729;Laerm;68312;53.502;10.030;2023-04-03T05:44:57;51.37;46.84;61.09;;
77729;Laerm;68312;53.502;10.030;2023-04-03T05:47:23;50.32;46.62;60.54;;
77729;Laerm;68312;53.502;10.030;2023-04-03T05:49:48;51.52;46.89;65.13;;
77729;Laerm;68312;53.502;10.030;2023-04-03T05:52:28;50.54;46.76;57.03;;
77729;Laerm;68312;53.502;10.030;2023-04-03T05:54:54;50.06;45.75;59.14;;
77729;Laerm;68312;53.502;10.030;2023-04-03T05:57:20;51.93;45.94;60.33;;
77729;Laerm;68312;53.502;10.030;2023-04-03T05:59:47;52.14;46.61;61.12;;
77729;Laerm;68312;53.502;10.030;2023-04-03T06:02:18;51.68;46.14;66.01;;
77729;Laerm;68312;53.502;10.030;2023-04-03T06:04:44;50.88;45.53;64.04;;
77729;Laerm;68312;53.502;10.030;2023-04-03T06:07:16;49.14;44.81;59.94;;
77729;Laerm;68312;53.502;10.030;2023-04-03T06:09:43;48.25;45.46;56.64;;
77729;Laerm;68312;53.502;10.030;2023-04-03T06:12:09;49.58;45.27;62.57;;
77729;Laerm;68312;53.502;10.030;2023-04-03T06:14:35;48.05;44.71;54.45;;
77729;Laerm;68312;53.502;10.030;2023-04-03T06:17:01;48.63;44.23;58.04;;
77729;Laerm;68312;53.502;10.030;2023-04-03T06:19:28;48.76;43.86;59.61;;
77729;Laerm;68312;53.502;10.030;2023-04-03T06:21:54;48.48;44.46;56.63;;
77729;Laerm;68312;53.502;10.030;2023-04-03T06:24:20;48.62;43.52;60.56;;
77729;Laerm;68312;53.502;10.030;2023-04-03T06:26:48;48.10;43.81;56.68;;
77729;Laerm;68312;53.502;10.030;2023-04-03T06:29:15;48.01;43.78;59.30;;
77729;Laerm;68312;53.502;10.030;2023-04-03T06:31:41;47.80;43.71;70.33;;
77729;Laerm;68312;53.502;10.030;2023-04-03T06:34:06;47.23;43.70;58.07;;
77729;Laerm;68312;53.502;10.030;2023-04-03T06:36:33;46.71;43.56;56.17;;
77729;Laerm;68312;53.502;10.030;2023-04-03T06:39:00;46.72;43.65;55.80;;
77729;Laerm;68312;53.502;10.030;2023-04-03T06:41:27;47.25;43.67;59.69;;
77729;Laerm;68312;53.502;10.030;2023-04-03T06:43:52;47.53;43.23;56.96;;
77729;Laerm;68312;53.502;10.030;2023-04-03T06:46:22;47.80;43.11;58.89;;
77729;Laerm;68312;53.502;10.030;2023-04-03T06:48:49;47.94;43.54;62.24;;
77729;Laerm;68312;53.502;10.030;2023-04-03T06:51:25;47.63;43.28;60.33;;
77729;Laerm;68312;53.502;10.030;2023-04-03T06:53:58;47.38;43.22;63.36;;
77729;Laerm;68312;53.502;10.030;2023-04-03T06:56:26;47.27;42.27;64.60;;
77729;Laerm;68312;53.502;10.030;2023-04-03T06:58:54;46.96;42.52;56.94;;
77729;Laerm;68312;53.502;10.030;2023-04-03T07:01:28;46.86;42.89;58.25;;
77729;Laerm;68312;53.502;10.030;2023-04-03T07:03:55;47.29;42.79;56.95;;
77729;Laerm;68312;53.502;10.030;2023-04-03T07:06:22;47.55;44.80;54.14;;
77729;Laerm;68312;53.502;10.030;2023-04-03T07:08:48;48.13;44.44;55.53;;
77729;Laerm;68312;53.502;10.030;2023-04-03T07:11:15;47.33;43.83;57.41;;
77729;Laerm;68312;53.502;10.030;2023-04-03T07:13:40;46.69;43.55;56.77;;
77729;Laerm;68312;53.502;10.030;2023-04-03T07:16:08;48.19;43.70;60.19;;
77729;Laerm;68312;53.502;10.030;2023-04-03T07:18:34;48.82;44.23;62.94;;
77729;Laerm;68312;53.502;10.030;2023-04-03T07:21:00;48.54;45.40;55.40;;
77729;Laerm;68312;53.502;10.030;2023-04-03T07:23:26;48.30;43.75;57.43;;
77729;Laerm;68312;53.502;10.030;2023-04-03T07:25:53;47.99;44.26;55.07;;
77729;Laerm;68312;53.502;10.030;2023-04-03T07:28:21;46.38;43.00;51.84;;
77729;Laerm;68312;53.502;10.030;2023-04-03T07:31:11;47.33;43.42;55.28;;
77729;Laerm;68312;53.502;10.030;2023-04-03T07:33:40;46.66;43.66;51.29;;
77729;Laerm;68312;53.502;10.030;2023-04-03T07:36:07;47.87;43.86;65.74;;
77729;Laerm;68312;53.502;10.030;2023-04-03T07:38:35;49.00;44.11;60.18;;
77729;Laerm;68312;53.502;10.030;2023-04-03T07:41:03;50.72;44.72;64.35;;
77729;Laerm;68312;53.502;10.030;2023-04-03T07:43:29;48.71;44.53;61.83;;
77729;Laerm;68312;53.502;10.030;2023-04-03T07:45:55;47.83;43.52;56.09;;
77729;Laerm;68312;53.502;10.030;2023-04-03T07:48:25;48.02;43.87;53.11;;
77729;Laerm;68312;53.502;10.030;2023-04-03T07:50:52;48.64;43.55;56.76;;
77729;Laerm;68312;53.502;10.030;2023-04-03T07:53:17;49.56;45.12;61.82;;
77729;Laerm;68312;53.502;10.030;2023-04-03T07:55:47;48.63;45.09;57.32;;
77729;Laerm;68312;53.502;10.030;2023-04-03T07:58:17;48.85;45.34;56.14;;
77729;Laerm;68312;53.502;10.030;2023-04-03T08:00:45;48.48;44.40;56.15;;
77729;Laerm;68312;53.502;10.030;2023-04-03T08:03:11;48.48;43.46;61.17;;
77729;Laerm;68312;53.502;10.030;2023-04-03T08:05:47;48.61;44.78;54.83;;
77729;Laerm;68312;53.502;10.030;2023-04-03T08:08:23;47.92;44.89;53.95;;
77729;Laerm;68312;53.502;10.030;2023-04-03T08:10:54;48.60;43.72;71.37;;
77729;Laerm;68312;53.502;10.030;2023-04-03T08:13:21;52.23;43.15;68.77;;
77729;Laerm;68312;53.502;10.030;2023-04-03T08:15:47;47.99;44.15;63.27;;
77729;Laerm;68312;53.502;10.030;2023-04-03T08:18:15;47.69;44.33;58.40;;
77729;Laerm;68312;53.502;10.030;2023-04-03T08:20:41;48.89;44.79;66.03;;
77729;Laerm;68312;53.502;10.030;2023-04-03T08:23:09;47.49;43.39;57.29;;
77729;Laerm;68312;53.502;10.030;2023-04-03T08:25:42;47.79;43.18;60.24;;
77729;Laerm;68312;53.502;10.030;2023-04-03T08:28:10;47.77;43.57;55.37;;
77729;Laerm;68312;53.502;10.030;2023-04-03T08:30:42;47.16;42.73;63.74;;
77729;Laerm;68312;53.502;10.030;2023-04-03T08:33:08;47.06;43.10;52.23;;
77729;Laerm;68312;53.502;10.030;2023-04-03T08:35:41;47.36;43.43;54.15;;
77729;Laerm;68312;53.502;10.030;2023-04-03T08:38:09;46.69;42.98;56.36;;
77729;Laerm;68312;53.502;10.030;2023-04-03T08:40:35;46.80;43.43;55.95;;
77729;Laerm;68312;53.502;10.030;2023-04-03T08:43:48;49.83;42.86;70.23;;
77729;Laerm;68312;53.502;10.030;2023-04-03T08:46:26;45.85;42.79;57.71;;
77729;Laerm;68312;53.502;10.030;2023-04-03T08:48:59;46.56;42.33;55.14;;
77729;Laerm;68312;53.502;10.030;2023-04-03T08:51:27;44.82;41.92;52.66;;
77729;Laerm;68312;53.502;10.030;2023-04-03T08:54:27;47.77;42.43;60.47;;
77729;Laerm;68312;53.502;10.030;2023-04-03T08:56:55;46.10;40.41;57.80;;
77729;Laerm;68312;53.502;10.030;2023-04-03T08:59:34;45.87;40.84;54.33;;
77729;Laerm;68312;53.502;10.030;2023-04-03T09:02:24;44.25;39.77;56.25;;
77729;Laerm;68312;53.502;10.030;2023-04-03T09:04:52;44.99;40.16;60.78;;
77729;Laerm;68312;53.502;10.030;2023-04-03T09:07:42;45.87;41.99;59.18;;
77729;Laerm;68312;53.502;10.030;2023-04-03T09:10:13;43.92;40.79;52.29;;
77729;Laerm;68312;53.502;10.030;2023-04-03T09:12:49;76.14;39.95;102.11;;
77729;Laerm;68312;53.502;10.030;2023-04-03T09:15:24;44.99;40.56;57.67;;
77729;Laerm;68312;53.502;10.030;2023-04-03T09:21:20;44.16;40.04;53.19;;
77729;Laerm;68312;53.502;10.030;2023-04-03T09:23:55;47.63;40.89;67.43;;
77729;Laerm;68312;53.502;10.030;2023-04-03T09:26:55;46.66;40.72;65.22;;
77729;Laerm;68312;53.502;10.030;2023-04-03T09:29:24;44.52;40.78;49.96;;
77729;Laerm;68312;53.502;10.030;2023-04-03T09:31:59;45.11;41.59;53.48;;
77729;Laerm;68312;53.502;10.030;2023-04-03T09:34:35;45.41;39.57;60.19;;
77729;Laerm;68312;53.502;10.030;2023-04-03T09:37:03;49.45;40.25;66.48;;
77729;Laerm;68312;53.502;10.030;2023-04-03T09:39:52;42.88;39.41;51.11;;
77729;Laerm;68312;53.502;10.030;2023-04-03T09:42:24;45.78;41.78;59.49;;
77729;Laerm;68312;53.502;10.030;2023-04-03T09:45:04;45.94;41.52;56.19;;
77729;Laerm;68312;53.502;10.030;2023-04-03T09:47:33;47.91;41.29;59.33;;
77729;Laerm;68312;53.502;10.030;2023-04-03T09:50:28;44.83;40.85;54.97;;
77729;Laerm;68312;53.502;10.030;2023-04-03T09:52:54;43.15;38.59;55.68;;
77729;Laerm;68312;53.502;10.030;2023-04-03T09:55:27;41.34;37.07;56.71;;
77729;Laerm;68312;53.502;10.030;2023-04-03T09:58:27;43.45;39.40;56.77;;
77729;Laerm;68312;53.502;10.030;2023-04-03T10:00:58;44.62;39.15;56.96;;
77729;Laerm;68312;53.502;10.030;2023-04-03T10:03:36;48.20;39.58;67.73;;
77729;Laerm;68312;53.502;10.030;2023-04-03T10:06:04;48.08;39.02;64.53;;
77729;Laerm;68312;53.502;10.030;2023-04-03T10:09:02;42.97;38.92;52.38;;
77729;Laerm;68312;53.502;10.030;2023-04-03T10:11:30;42.55;39.25;51.96;;
77729;Laerm;68312;53.502;10.030;2023-04-03T10:14:00;44.47;40.14;54.99;;
77729;Laerm;68312;53.502;10.030;2023-04-03T10:16:38;43.61;38.66;57.69;;
77729;Laerm;68312;53.502;10.030;2023-04-03T10:19:42;48.61;39.72;62.77;;
77729;Laerm;68312;53.502;10.030;2023-04-03T10:22:22;44.43;39.64;59.74;;
77729;Laerm;68312;53.502;10.030;2023-04-03T10:25:31;44.26;40.31;57.49;;
77729;Laerm;68312;53.502;10.030;2023-04-03T10:28:10;45.49;41.51;55.07;;
77729;Laerm;68312;53.502;10.030;2023-04-03T10:34:18;45.49;40.95;55.46;;
77729;Laerm;68312;53.502;10.030;2023-04-03T10:37:10;48.44;42.18;70.29;;
77729;Laerm;68312;53.502;10.030;2023-04-03T10:43:01;51.19;44.03;64.46;;
77729;Laerm;68312;53.502;10.030;2023-04-03T10:45:51;46.94;42.74;62.53;;
77729;Laerm;68312;53.502;10.030;2023-04-03T10:51:25;47.33;42.92;67.99;;
77729;Laerm;68312;53.502;10.030;2023-04-03T10:56:48;47.49;44.39;60.74;;
77729;Laerm;68312;53.502;10.030;2023-04-03T10:59:28;49.78;43.60;62.27;;
77729;Laerm;68312;53.502;10.030;2023-04-03T11:02:06;47.35;42.98;64.83;;
77729;Laerm;68312;53.502;10.030;2023-04-03T11:04:39;53.02;43.50;67.00;;
77729;Laerm;68312;53.502;10.030;2023-04-03T11:07:18;50.34;44.03;70.89;;
77729;Laerm;68312;53.502;10.030;2023-04-03T11:09:53;47.39;42.73;61.69;;
77729;Laerm;68312;53.502;10.030;2023-04-03T11:12:43;47.45;43.13;57.35;;
77729;Laerm;68312;53.502;10.030;2023-04-03T11:15:18;48.37;44.83;55.40;;
77729;Laerm;68312;53.502;10.030;2023-04-03T11:18:01;48.90;44.69;63.00;;
77729;Laerm;68312;53.502;10.030;2023-04-03T11:20:33;47.93;44.27;55.02;;
77729;Laerm;68312;53.502;10.030;2023-04-03T11:23:26;48.64;43.38;58.72;;
77729;Laerm;68312;53.502;10.030;2023-04-03T11:26:12;47.52;43.49;56.02;;
77729;Laerm;68312;53.502;10.030;2023-04-03T11:28:38;47.30;43.11;57.88;;
77729;Laerm;68312;53.502;10.030;2023-04-03T11:31:43;47.92;43.62;59.87;;
77729;Laerm;68312;53.502;10.030;2023-04-03T11:34:40;48.48;43.69;56.37;;
77729;Laerm;68312;53.502;10.030;2023-04-03T11:37:44;47.54;43.39;60.10;;
77729;Laerm;68312;53.502;10.030;2023-04-03T11:40:27;47.70;43.10;57.86;;
77729;Laerm;68312;53.502;10.030;2023-04-03T11:43:07;46.66;43.35;56.58;;
77729;Laerm;68312;53.502;10.030;2023-04-03T11:46:00;46.49;42.18;54.84;;
77729;Laerm;68312;53.502;10.030;2023-04-03T11:53:43;48.48;44.74;56.83;;
77729;Laerm;68312;53.502;10.030;2023-04-03T12:01:57;49.54;45.51;58.39;;
77729;Laerm;68312;53.502;10.030;2023-04-03T12:04:27;50.08;45.69;65.05;;
77729;Laerm;68312;53.502;10.030;2023-04-03T12:07:18;48.48;43.95;66.99;;
77729;Laerm;68312;53.502;10.030;2023-04-03T12:12:37;48.89;44.25;70.74;;
77729;Laerm;68312;53.502;10.030;2023-04-03T12:15:47;48.16;43.86;55.34;;
77729;Laerm;68312;53.502;10.030;2023-04-03T12:18:42;50.74;43.61;70.01;;
77729;Laerm;68312;53.502;10.030;2023-04-03T12:21:12;48.17;43.47;62.79;;
77729;Laerm;68312;53.502;10.030;2023-04-03T12:29:35;46.47;42.94;55.65;;
77729;Laerm;68312;53.502;10.030;2023-04-03T12:32:57;58.14;41.48;75.03;;
77729;Laerm;68312;53.502;10.030;2023-04-03T12:36:23;47.88;43.67;59.04;;
77729;Laerm;68312;53.502;10.030;2023-04-03T12:39:22;48.12;43.83;56.14;;
77729;Laerm;68312;53.502;10.030;2023-04-03T12:42:18;46.90;42.57;56.58;;
77729;Laerm;68312;53.502;10.030;2023-04-03T12:45:20;45.67;42.00;54.11;;
77729;Laerm;68312;53.502;10.030;2023-04-03T12:47:51;47.24;43.30;58.72;;
77729;Laerm;68312;53.502;10.030;2023-04-03T12:50:25;49.19;45.30;58.88;;
77729;Laerm;68312;53.502;10.030;2023-04-03T12:53:01;48.95;44.47;59.91;;
77729;Laerm;68312;53.502;10.030;2023-04-03T12:55:29;48.06;43.17;58.80;;
77729;Laerm;68312;53.502;10.030;2023-04-03T12:57:54;48.02;42.65;59.40;;
77729;Laerm;68312;53.502;10.030;2023-04-03T13:00:30;58.90;43.41;74.37;;
77729;Laerm;68312;53.502;10.030;2023-04-03T13:02:58;47.53;42.13;59.82;;
77729;Laerm;68312;53.502;10.030;2023-04-03T13:05:24;46.31;42.81;56.22;;
77729;Laerm;68312;53.502;10.030;2023-04-03T13:08:05;46.65;42.64;58.58;;
77729;Laerm;68312;53.502;10.030;2023-04-03T13:11:05;49.00;43.91;63.78;;
77729;Laerm;68312;53.502;10.030;2023-04-03T13:13:32;48.33;43.77;59.98;;
77729;Laerm;68312;53.502;10.030;2023-04-03T13:15:58;46.84;43.35;53.39;;
77729;Laerm;68312;53.502;10.030;2023-04-03T13:18:33;46.18;41.74;61.16;;
77729;Laerm;68312;53.502;10.030;2023-04-03T13:21:19;58.47;43.40;72.60;;
77729;Laerm;68312;53.502;10.030;2023-04-03T13:23:52;44.68;39.71;56.79;;
77729;Laerm;68312;53.502;10.030;2023-04-03T13:26:29;44.93;39.49;57.66;;
77729;Laerm;68312;53.502;10.030;2023-04-03T13:29:03;43.86;40.35;50.06;;
77729;Laerm;68312;53.502;10.030;2023-04-03T13:31:37;45.77;40.77;54.69;;
77729;Laerm;68312;53.502;10.030;2023-04-03T13:34:12;47.81;40.03;61.70;;
77729;Laerm;68312;53.502;10.030;2023-04-03T13:36:54;45.40;40.35;56.03;;
77729;Laerm;68312;53.502;10.030;2023-04-03T13:39:32;47.90;42.17;63.84;;
77729;Laerm;68312;53.502;10.030;2023-04-03T13:42:16;45.72;40.90;51.39;;
77729;Laerm;68312;53.502;10.030;2023-04-03T13:44:42;43.88;39.68;53.84;;
77729;Laerm;68312;53.502;10.030;2023-04-03T13:50:24;45.17;40.62;54.90;;
77729;Laerm;68312;53.502;10.030;2023-04-03T13:53:11;48.58;39.61;66.14;;
77729;Laerm;68312;53.502;10.030;2023-04-03T13:58:31;47.06;42.49;59.91;;
77729;Laerm;68312;53.502;10.030;2023-04-03T14:02:09;47.48;41.49;58.73;;
77729;Laerm;68312;53.502;10.030;2023-04-03T14:07:16;48.45;44.05;60.44;;
77729;Laerm;68312;53.502;10.030;2023-04-03T14:09:43;49.62;44.36;62.72;;
77729;Laerm;68312;53.502;10.030;2023-04-03T14:12:25;47.56;42.66;59.47;;
77729;Laerm;68312;53.502;10.030;2023-04-03T14:14:52;46.64;41.62;58.66;;
77729;Laerm;68312;53.502;10.030;2023-04-03T14:17:24;45.84;40.97;55.95;;
77729;Laerm;68312;53.502;10.030;2023-04-03T14:19:53;47.23;41.83;63.78;;
77729;Laerm;68312;53.502;10.030;2023-04-03T14:22:26;42.17;38.19;47.72;;
77729;Laerm;68312;53.502;10.030;2023-04-03T14:24:52;44.12;40.03;52.09;;
77729;Laerm;68312;53.502;10.030;2023-04-03T14:27:36;45.48;41.57;57.27;;
77729;Laerm;68312;53.502;10.030;2023-04-03T14:30:12;48.40;43.02;65.95;;
77729;Laerm;68312;53.502;10.030;2023-04-03T14:32:39;48.30;42.96;61.73;;
77729;Laerm;68312;53.502;10.030;2023-04-03T14:35:05;48.15;43.04;62.79;;
77729;Laerm;68312;53.502;10.030;2023-04-03T14:37:32;47.93;42.07;58.35;;
77729;Laerm;68312;53.502;10.030;2023-04-03T14:40:01;47.45;41.87;59.66;;
77729;Laerm;68312;53.502;10.030;2023-04-03T14:42:35;47.52;40.64;60.89;;
77729;Laerm;68312;53.502;10.030;2023-04-03T14:45:09;48.47;41.10;64.43;;
77729;Laerm;68312;53.502;10.030;2023-04-03T14:47:49;46.88;41.32;58.80;;
77729;Laerm;68312;53.502;10.030;2023-04-03T14:50:22;53.26;42.29;71.41;;